createdAt,value
2019-03-01T00:01:18.856Z,10.00
2019-03-01T00:03:57.177Z,10.10
2019-03-01T00:07:37.771Z,10.10
2019-03-01T00:10:22.758Z,10.10
2019-03-01T00:13:55.759Z,10.10
2019-03-01T00:17:18.258Z,10.10
2019-03-01T00:20:46.411Z,10.10
2019-03-01T00:24:08.073Z,10.10
2019-03-01T00:27:04.688Z,10.10
2019-03-01T00:30:38.373Z,10.20
2019-03-01T00:34:06.710Z,10.10
2019-03-01T00:37:45.574Z,10.20
2019-03-01T00:41:15.560Z,10.20
2019-03-01T00:44:40.216Z,10.20
2019-03-01T00:47:12.393Z,10.20
2019-03-01T00:49:44.624Z,10.20
2019-03-01T00:52:16.613Z,10.20
2019-03-01T00:54:48.631Z,10.20
2019-03-01T00:57:20.619Z,10.20
2019-03-01T00:59:52.631Z,10.20
2019-03-01T01:02:24.616Z,10.10
2019-03-01T01:04:56.644Z,10.10
2019-03-01T01:07:28.699Z,10.10
2019-03-01T01:10:00.725Z,10.10
2019-03-01T01:12:32.778Z,10.10
2019-03-01T01:15:05.040Z,10.00
2019-03-01T01:17:37.108Z,10.00
2019-03-01T01:20:09.776Z,10.00
2019-03-01T01:22:41.848Z,10.00
2019-03-01T01:25:13.884Z,10.00
2019-03-01T01:27:45.882Z,10.00
2019-03-01T01:30:18.103Z,10.10
2019-03-01T01:32:50.157Z,10.10
2019-03-01T01:35:22.185Z,10.10
2019-03-01T01:37:54.239Z,10.10
2019-03-01T01:40:26.262Z,10.00
2019-03-01T01:42:58.242Z,10.00
2019-03-01T01:45:30.339Z,10.00
2019-03-01T01:48:02.319Z,10.00
2019-03-01T01:50:34.410Z,10.00
2019-03-01T01:53:06.464Z,10.00
2019-03-01T01:55:38.600Z,10.00
2019-03-01T01:58:10.669Z,10.00
2019-03-01T02:00:42.865Z,10.00
2019-03-01T02:03:15.025Z,9.90
2019-03-01T02:05:47.183Z,10.00
2019-03-01T02:08:19.150Z,9.90
2019-03-01T02:10:51.326Z,10.00
2019-03-01T02:13:23.480Z,10.00
2019-03-01T02:15:55.588Z,9.90
2019-03-01T02:18:27.704Z,9.90
2019-03-01T02:20:59.910Z,9.90
2019-03-01T02:23:32.030Z,10.00
2019-03-01T02:26:03.933Z,9.90
2019-03-01T02:28:35.976Z,9.90
2019-03-01T02:31:08.825Z,9.90
2019-03-01T02:33:40.732Z,9.90
2019-03-01T02:36:12.705Z,9.90
2019-03-01T02:38:44.623Z,9.90
2019-03-01T02:41:16.551Z,9.90
2019-03-01T02:43:48.559Z,9.90
2019-03-01T02:46:20.486Z,9.90
2019-03-01T02:48:52.393Z,9.90
2019-03-01T02:51:24.697Z,9.90
2019-03-01T02:53:56.602Z,9.90
2019-03-01T02:56:28.544Z,9.90
2019-03-01T02:59:00.446Z,9.90
2019-03-01T03:01:32.383Z,9.90
2019-03-01T03:04:04.385Z,9.90
2019-03-01T03:06:44.220Z,9.90
2019-03-01T03:09:16.126Z,9.90
2019-03-01T03:11:48.064Z,9.90
2019-03-01T03:14:19.957Z,9.90
2019-03-01T03:16:51.893Z,9.80
2019-03-01T03:19:23.798Z,9.80
2019-03-01T03:21:55.783Z,9.80
2019-03-01T03:24:27.673Z,9.70
2019-03-01T03:26:59.605Z,9.70
2019-03-01T03:29:31.580Z,9.70
2019-03-01T03:32:03.516Z,9.70
2019-03-01T03:34:35.478Z,9.60
2019-03-01T03:37:07.424Z,9.60
2019-03-01T03:39:39.319Z,9.60
2019-03-01T03:42:11.353Z,9.50
2019-03-01T03:44:43.256Z,9.50
2019-03-01T03:47:15.195Z,9.40
2019-03-01T03:49:47.092Z,9.40
2019-03-01T03:52:19.355Z,9.30
2019-03-01T03:54:51.318Z,9.30
2019-03-01T03:57:23.282Z,9.30
2019-03-01T03:59:55.431Z,9.30
2019-03-01T04:02:27.374Z,9.20
2019-03-01T04:04:59.280Z,9.20
2019-03-01T04:07:31.222Z,9.20
2019-03-01T04:10:03.127Z,9.20
2019-03-01T04:12:35.066Z,9.20
2019-03-01T04:15:08.011Z,9.20
2019-03-01T04:17:40.002Z,9.20
2019-03-01T04:20:15.719Z,9.20
2019-03-01T04:22:47.659Z,9.20
2019-03-01T04:25:19.550Z,9.10
2019-03-01T04:27:53.330Z,9.20
2019-03-01T04:30:25.077Z,9.10
2019-03-01T04:32:57.006Z,9.10
2019-03-01T04:35:28.892Z,9.10
2019-03-01T04:38:00.816Z,9.10
2019-03-01T04:40:32.796Z,9.10
2019-03-01T04:43:04.740Z,9.10
2019-03-01T04:45:36.630Z,9.10
2019-03-01T04:48:08.632Z,9.10
2019-03-01T04:50:40.532Z,9.10
2019-03-01T04:53:12.467Z,9.00
2019-03-01T04:55:44.359Z,9.00
2019-03-01T04:58:16.283Z,9.00
2019-03-01T05:00:48.179Z,9.00
2019-03-01T05:03:20.110Z,8.90
2019-03-01T05:05:52.039Z,8.90
2019-03-01T05:08:23.984Z,8.90
2019-03-01T05:10:55.879Z,8.90
2019-03-01T05:13:27.912Z,8.90
2019-03-01T05:15:59.856Z,8.90
2019-03-01T05:18:31.790Z,8.90
2019-03-01T05:21:03.689Z,8.90
2019-03-01T05:23:35.603Z,9.00
2019-03-01T05:26:07.523Z,8.90
2019-03-01T05:28:39.462Z,9.00
2019-03-01T05:31:11.344Z,9.00
2019-03-01T05:33:43.277Z,9.00
2019-03-01T05:36:15.169Z,9.00
2019-03-01T05:38:47.096Z,9.00
2019-03-01T05:41:19.017Z,8.90
2019-03-01T05:43:50.948Z,8.90
2019-03-01T05:46:22.878Z,8.90
2019-03-01T05:48:54.818Z,8.90
2019-03-01T05:51:26.855Z,9.00
2019-03-01T05:53:58.809Z,9.00
2019-03-01T05:56:30.735Z,9.00
2019-03-01T05:59:29.280Z,9.00
2019-03-01T06:02:52.044Z,9.00
2019-03-01T06:05:39.806Z,8.90
2019-03-01T06:08:42.892Z,8.90
2019-03-01T06:11:59.315Z,8.90
2019-03-01T06:15:22.292Z,8.90
2019-03-01T06:18:56.790Z,8.90
2019-03-01T06:22:48.309Z,8.90
2019-03-01T06:25:51.708Z,8.80
2019-03-01T06:29:21.935Z,8.70
2019-03-01T06:32:38.780Z,8.70
2019-03-01T06:36:21.345Z,8.70
2019-03-01T06:39:55.906Z,8.70
2019-03-01T06:43:04.216Z,8.70
2019-03-01T06:46:18.354Z,8.70
2019-03-01T06:48:54.713Z,8.70
2019-03-01T06:51:34.878Z,8.70
2019-03-01T06:54:06.914Z,8.80
2019-03-01T06:56:38.805Z,8.70
2019-03-01T06:59:10.740Z,8.80
2019-03-01T07:01:43.964Z,8.80
2019-03-01T07:04:18.648Z,8.80
2019-03-01T07:06:50.686Z,8.80
2019-03-01T07:09:22.615Z,8.80
2019-03-01T07:11:54.507Z,8.80
2019-03-01T07:14:26.445Z,8.90
2019-03-01T07:16:58.458Z,8.90
2019-03-01T07:19:30.504Z,8.90
2019-03-01T07:22:02.574Z,8.90
2019-03-01T07:24:34.458Z,8.90
2019-03-01T07:27:06.353Z,8.90
2019-03-01T07:29:38.284Z,8.80
2019-03-01T07:32:10.211Z,8.80
2019-03-01T07:34:42.144Z,8.90
2019-03-01T07:37:14.084Z,9.00
2019-03-01T07:39:46.017Z,9.10
2019-03-01T07:42:17.957Z,9.10
2019-03-01T07:44:49.896Z,9.10
2019-03-01T07:47:23.261Z,9.10
2019-03-01T07:49:55.195Z,9.10
2019-03-01T07:52:27.122Z,9.10
2019-03-01T07:54:59.068Z,9.10
2019-03-01T07:57:31.664Z,9.20
2019-03-01T08:00:03.625Z,9.30
2019-03-01T08:02:35.993Z,9.30
2019-03-01T08:05:11.029Z,9.30
2019-03-01T08:07:43.064Z,9.20
2019-03-01T08:10:20.614Z,9.30
2019-03-01T08:12:48.794Z,9.30
2019-03-01T08:15:20.841Z,9.30
2019-03-01T08:17:52.786Z,9.40
2019-03-01T08:20:24.764Z,9.40
2019-03-01T08:22:59.782Z,9.40
2019-03-01T08:25:30.346Z,9.40
2019-03-01T08:28:02.301Z,9.40
2019-03-01T08:30:34.246Z,9.40
2019-03-01T08:33:07.833Z,9.40
2019-03-01T08:35:39.909Z,9.40
2019-03-01T08:38:11.849Z,9.50
2019-03-01T08:40:46.628Z,9.50
2019-03-01T08:43:17.419Z,9.50
2019-03-01T08:45:49.351Z,9.60
2019-03-01T08:48:21.297Z,9.70
2019-03-01T08:50:53.234Z,9.70
2019-03-01T08:53:25.170Z,9.70
2019-03-01T08:55:57.221Z,9.60
2019-03-01T08:58:29.125Z,9.60
2019-03-01T09:01:04.073Z,9.50
2019-03-01T09:03:41.821Z,9.50
2019-03-01T09:06:13.917Z,9.50
2019-03-01T09:08:46.830Z,9.50
2019-03-01T09:11:18.843Z,9.60
2019-03-01T09:13:50.780Z,9.60
2019-03-01T09:16:22.987Z,9.70
2019-03-01T09:18:54.919Z,9.80
2019-03-01T09:21:26.978Z,9.90
2019-03-01T09:23:59.150Z,10.00
2019-03-01T09:26:31.298Z,10.00
2019-03-01T09:29:03.399Z,10.00
2019-03-01T09:31:35.458Z,9.90
2019-03-01T09:34:07.608Z,9.90
2019-03-01T09:36:43.581Z,9.80
2019-03-01T09:39:18.116Z,9.70
2019-03-01T09:41:50.519Z,9.70
2019-03-01T09:44:22.469Z,9.70
2019-03-01T09:46:54.395Z,9.80
2019-03-01T09:49:26.452Z,9.90
2019-03-01T09:51:58.444Z,9.90
2019-03-01T09:54:30.381Z,9.90
2019-03-01T09:57:02.320Z,9.90
2019-03-01T09:59:34.253Z,9.80
2019-03-01T10:02:06.384Z,9.80
2019-03-01T10:04:38.327Z,9.60
2019-03-01T10:07:10.266Z,9.50
2019-03-01T10:09:45.264Z,9.50
2019-03-01T10:12:17.184Z,9.50
2019-03-01T10:14:49.126Z,9.40
2019-03-01T10:17:21.067Z,9.40
2019-03-01T10:19:52.998Z,9.40
2019-03-01T10:22:24.936Z,9.40
2019-03-01T10:24:56.899Z,9.40
2019-03-01T10:27:28.935Z,9.50
2019-03-01T10:30:00.865Z,9.40
2019-03-01T10:32:32.762Z,9.50
2019-03-01T10:35:05.030Z,9.40
2019-03-01T10:37:37.022Z,9.50
2019-03-01T10:40:10.981Z,9.60
2019-03-01T10:42:42.878Z,9.60
2019-03-01T10:45:18.259Z,9.60
2019-03-01T10:47:50.164Z,9.60
2019-03-01T10:50:22.089Z,9.60
2019-03-01T10:52:53.990Z,9.50
2019-03-01T10:55:25.918Z,9.50
2019-03-01T10:57:57.814Z,9.50
2019-03-01T11:00:30.080Z,9.50
2019-03-01T11:03:01.983Z,9.60
2019-03-01T11:05:34.012Z,9.80
2019-03-01T11:08:06.024Z,10.10
2019-03-01T11:10:38.749Z,11.10
2019-03-01T11:13:11.221Z,11.70
2019-03-01T11:15:43.335Z,11.90
2019-03-01T11:18:15.313Z,12.00
2019-03-01T11:20:47.443Z,11.80
2019-03-01T11:23:19.501Z,11.60
2019-03-01T11:25:51.621Z,11.50
2019-03-01T11:28:23.679Z,11.50
2019-03-01T11:30:56.032Z,11.60
2019-03-01T11:33:28.085Z,11.60
2019-03-01T11:36:00.115Z,11.90
2019-03-01T11:38:32.162Z,12.20
2019-03-01T11:41:04.696Z,12.40
2019-03-01T11:43:36.852Z,13.00
2019-03-01T11:46:09.045Z,13.10
2019-03-01T11:48:41.053Z,12.90
2019-03-01T11:51:13.261Z,12.80
2019-03-01T11:53:45.324Z,12.70
2019-03-01T11:56:17.341Z,12.70
2019-03-01T11:58:49.439Z,12.50
2019-03-01T12:01:21.464Z,12.40
2019-03-01T12:03:53.551Z,12.10
2019-03-01T12:06:25.647Z,12.10
2019-03-01T12:08:57.624Z,12.10
2019-03-01T12:11:29.665Z,12.30
2019-03-01T12:14:01.653Z,12.50
2019-03-01T12:16:33.677Z,12.60
2019-03-01T12:19:05.749Z,12.60
2019-03-01T12:21:37.880Z,12.40
2019-03-01T12:24:09.862Z,12.20
2019-03-01T12:26:41.979Z,12.00
2019-03-01T12:29:13.959Z,11.70
2019-03-01T12:31:45.989Z,11.40
2019-03-01T12:34:18.074Z,11.30
2019-03-01T12:36:50.120Z,11.20
2019-03-01T12:39:22.120Z,11.20
2019-03-01T12:41:54.158Z,11.20
2019-03-01T12:44:26.247Z,11.10
2019-03-01T12:46:58.268Z,11.10
2019-03-01T12:49:30.254Z,11.10
2019-03-01T12:52:02.352Z,11.00
2019-03-01T12:54:34.338Z,11.10
2019-03-01T12:57:06.360Z,11.10
2019-03-01T12:59:38.335Z,11.10
2019-03-01T13:02:10.371Z,11.00
2019-03-01T13:04:42.425Z,10.90
2019-03-01T13:07:14.435Z,10.80
2019-03-01T13:09:46.422Z,10.80
2019-03-01T13:12:18.532Z,10.80
2019-03-01T13:14:50.524Z,10.80
2019-03-01T13:17:22.623Z,10.70
2019-03-01T13:19:57.509Z,10.70
2019-03-01T13:22:28.671Z,10.70
2019-03-01T13:25:00.688Z,10.70
2019-03-01T13:27:32.705Z,10.70
2019-03-01T13:30:05.039Z,10.60
2019-03-01T13:32:37.137Z,10.60
2019-03-01T13:35:12.482Z,10.50
2019-03-01T13:37:44.047Z,10.50
2019-03-01T13:40:17.595Z,10.50
2019-03-01T13:42:50.776Z,10.50
2019-03-01T13:45:23.485Z,10.50
2019-03-01T13:47:55.576Z,10.60
2019-03-01T13:50:27.642Z,10.60
2019-03-01T13:52:59.655Z,10.50
2019-03-01T13:55:31.949Z,10.50
2019-03-01T13:58:04.038Z,10.50
2019-03-01T14:00:36.286Z,10.50
2019-03-01T14:03:09.780Z,10.40
2019-03-01T14:05:41.854Z,10.50
2019-03-01T14:08:13.889Z,10.40
2019-03-01T14:10:45.897Z,10.40
2019-03-01T14:13:17.957Z,10.30
2019-03-01T14:15:50.542Z,10.30
2019-03-01T14:18:22.638Z,10.20
2019-03-01T14:20:57.902Z,10.20
2019-03-01T14:23:28.418Z,10.20
2019-03-01T14:26:00.473Z,10.10
2019-03-01T14:28:32.564Z,10.20
2019-03-01T14:31:07.659Z,10.20
2019-03-01T14:33:38.634Z,10.20
2019-03-01T14:36:10.677Z,10.30
2019-03-01T14:38:42.812Z,10.30
2019-03-01T14:41:15.179Z,10.30
2019-03-01T14:43:47.198Z,10.30
2019-03-01T14:46:20.909Z,10.30
2019-03-01T14:48:52.918Z,10.30
2019-03-01T14:51:24.984Z,10.30
2019-03-01T14:53:57.585Z,10.30
2019-03-01T14:56:38.055Z,10.30
2019-03-01T14:59:25.568Z,10.30
2019-03-01T15:02:43.536Z,10.30
2019-03-01T15:05:19.579Z,10.20
2019-03-01T15:07:49.360Z,10.20
2019-03-01T15:10:21.754Z,10.20
2019-03-01T15:12:57.607Z,10.20
2019-03-01T15:15:30.644Z,10.10
2019-03-01T15:18:02.455Z,10.00
2019-03-01T15:20:34.561Z,10.00
2019-03-01T15:23:06.559Z,9.90
2019-03-01T15:25:38.441Z,9.90
2019-03-01T15:28:13.239Z,9.80
2019-03-01T15:30:46.507Z,9.80
2019-03-01T15:33:17.888Z,9.80
2019-03-01T15:35:49.897Z,9.80
2019-03-01T15:38:23.945Z,9.70
2019-03-01T15:40:55.469Z,9.70
2019-03-01T15:43:29.893Z,9.70
2019-03-01T15:46:01.077Z,9.70
2019-03-01T15:48:34.533Z,9.70
2019-03-01T15:51:06.971Z,9.70
2019-03-01T15:53:38.919Z,9.60
2019-03-01T15:56:10.953Z,9.60
2019-03-01T15:58:42.899Z,9.60
2019-03-01T16:01:14.941Z,9.60
2019-03-01T16:03:47.172Z,9.60
2019-03-01T16:06:22.279Z,9.50
2019-03-01T16:08:52.741Z,9.50
2019-03-01T16:11:24.682Z,9.50
2019-03-01T16:13:56.622Z,9.50
2019-03-01T16:16:28.555Z,9.50
2019-03-01T16:19:00.494Z,9.50
2019-03-01T16:21:32.546Z,9.50
2019-03-01T16:24:05.000Z,9.50
2019-03-01T16:26:38.249Z,9.50
2019-03-01T16:29:10.200Z,9.40
2019-03-01T16:31:42.151Z,9.50
2019-03-01T16:34:14.083Z,9.50
2019-03-01T16:36:50.306Z,9.40
2019-03-01T16:39:24.017Z,9.40
2019-03-01T16:41:55.881Z,9.30
2019-03-01T16:44:27.821Z,9.30
2019-03-01T16:46:59.761Z,9.30
2019-03-01T16:49:31.703Z,9.30
2019-03-01T16:52:03.657Z,9.30
2019-03-01T16:54:35.605Z,9.30
2019-03-01T16:57:07.538Z,9.20
2019-03-01T16:59:39.667Z,9.20
2019-03-01T17:02:13.104Z,9.20
2019-03-01T17:04:45.058Z,9.20
2019-03-01T17:07:17.003Z,9.20
2019-03-01T17:09:51.391Z,9.20
2019-03-01T17:12:22.615Z,9.20
2019-03-01T17:14:54.562Z,9.30
2019-03-01T17:17:26.495Z,9.30
2019-03-01T17:19:58.711Z,9.20
2019-03-01T17:22:32.159Z,9.20
2019-03-01T17:25:04.523Z,9.20
2019-03-01T17:27:36.760Z,9.10
2019-03-01T17:30:11.140Z,9.10
2019-03-01T17:32:43.193Z,9.10
2019-03-01T17:35:15.501Z,9.10
2019-03-01T17:37:47.450Z,9.20
2019-03-01T17:40:19.641Z,9.10
2019-03-01T17:42:53.104Z,9.10
2019-03-01T17:45:25.923Z,9.10
2019-03-01T17:47:57.898Z,9.10
2019-03-01T17:50:29.875Z,9.10
2019-03-01T17:53:02.034Z,9.10
2019-03-01T17:55:34.402Z,9.20
2019-03-01T17:58:08.969Z,9.20
2019-03-01T18:00:40.615Z,9.20
2019-03-01T18:03:12.723Z,9.10
2019-03-01T18:05:44.805Z,9.10
2019-03-01T18:08:16.747Z,9.20
2019-03-01T18:10:48.921Z,9.20
2019-03-01T18:13:20.936Z,9.10
2019-03-01T18:15:53.037Z,9.10
2019-03-01T18:18:25.158Z,9.10
2019-03-01T18:20:57.106Z,9.10
2019-03-01T18:23:29.159Z,9.00
2019-03-01T18:26:03.298Z,9.00
2019-03-01T18:28:34.767Z,9.00
2019-03-01T18:31:06.876Z,9.00
2019-03-01T18:33:38.807Z,9.00
2019-03-01T18:36:10.757Z,9.00
2019-03-01T18:38:42.688Z,8.90
2019-03-01T18:41:14.636Z,9.00
2019-03-01T18:43:49.417Z,9.00
2019-03-01T18:46:21.449Z,8.90
2019-03-01T18:48:53.388Z,8.90
2019-03-01T18:51:25.328Z,8.90
2019-03-01T18:53:57.258Z,8.90
2019-03-01T18:56:29.735Z,8.90
2019-03-01T18:59:01.716Z,8.90
2019-03-01T19:01:33.747Z,8.90
2019-03-01T19:04:05.682Z,8.90
2019-03-01T19:06:37.623Z,8.90
2019-03-01T19:09:12.663Z,8.90
2019-03-01T19:11:45.534Z,8.90
2019-03-01T19:14:17.673Z,8.90
2019-03-01T19:16:49.614Z,8.90
2019-03-01T19:19:24.473Z,8.90
2019-03-01T19:21:55.309Z,8.90
2019-03-01T19:24:27.271Z,8.90
2019-03-01T19:26:59.244Z,8.80
2019-03-01T19:29:31.162Z,8.80
2019-03-01T19:32:03.105Z,8.80
2019-03-01T19:34:35.034Z,8.80
2019-03-01T19:37:07.096Z,8.80
2019-03-01T19:39:39.072Z,8.80
2019-03-01T19:42:11.010Z,8.80
2019-03-01T19:44:42.946Z,8.70
2019-03-01T19:47:14.892Z,8.80
2019-03-01T19:49:48.505Z,8.80
2019-03-01T19:52:20.451Z,8.80
2019-03-01T19:54:52.399Z,8.70
2019-03-01T19:57:24.439Z,8.80
2019-03-01T19:59:56.373Z,8.80
2019-03-01T20:02:31.023Z,8.70
2019-03-01T20:05:01.953Z,8.80
2019-03-01T20:07:33.887Z,8.80
2019-03-01T20:10:06.641Z,8.80
2019-03-01T20:12:40.581Z,8.80
2019-03-01T20:15:16.074Z,8.80
2019-03-01T20:17:48.143Z,8.80
2019-03-01T20:20:21.139Z,8.80
2019-03-01T20:22:54.333Z,8.70
2019-03-01T20:25:27.125Z,8.70
2019-03-01T20:27:59.198Z,8.70
2019-03-01T20:30:31.370Z,8.70
2019-03-01T20:33:03.295Z,8.70
2019-03-01T20:35:35.361Z,8.70
2019-03-01T20:38:07.336Z,8.60
2019-03-01T20:40:39.397Z,8.60
2019-03-01T20:43:11.424Z,8.60
2019-03-01T20:45:43.501Z,8.60
2019-03-01T20:48:15.857Z,8.60
2019-03-01T20:50:50.986Z,8.50
2019-03-01T20:53:22.499Z,8.50
2019-03-01T20:55:54.511Z,8.50
2019-03-01T20:58:26.599Z,8.50
2019-03-01T21:00:58.832Z,8.50
2019-03-01T21:03:32.326Z,8.50
2019-03-01T21:06:04.812Z,8.60
2019-03-01T21:08:37.557Z,8.60
2019-03-01T21:11:10.236Z,8.60
2019-03-01T21:13:45.827Z,8.50
2019-03-01T21:16:16.090Z,8.60
2019-03-01T21:18:48.112Z,8.50
2019-03-01T21:21:20.170Z,8.50
2019-03-01T21:23:52.273Z,8.50
2019-03-01T21:26:24.488Z,8.60
2019-03-01T21:28:56.580Z,8.60
2019-03-01T21:31:31.788Z,8.50
2019-03-01T21:34:02.694Z,8.50
2019-03-01T21:36:35.704Z,8.50
2019-03-01T21:39:08.654Z,8.50
2019-03-01T21:41:41.554Z,8.40
2019-03-01T21:44:14.501Z,8.40
2019-03-01T21:46:46.596Z,8.30
2019-03-01T21:49:18.692Z,8.30
2019-03-01T21:51:51.736Z,8.30
2019-03-01T21:54:24.516Z,8.30
2019-03-01T21:56:57.025Z,8.30
2019-03-01T21:59:29.229Z,8.30
2019-03-01T22:02:01.302Z,8.20
2019-03-01T22:04:34.396Z,8.30
2019-03-01T22:07:07.119Z,8.30
2019-03-01T22:09:39.208Z,8.30
2019-03-01T22:12:11.320Z,8.20
2019-03-01T22:14:45.695Z,8.20
2019-03-01T22:17:17.110Z,8.20
2019-03-01T22:19:49.128Z,8.10
2019-03-01T22:22:21.345Z,8.10
2019-03-01T22:24:53.479Z,8.10
2019-03-01T22:27:26.232Z,8.10
2019-03-01T22:29:58.271Z,8.10
2019-03-01T22:32:30.287Z,8.00
2019-03-01T22:35:03.131Z,8.00
2019-03-01T22:37:36.111Z,8.00
2019-03-01T22:40:09.799Z,8.00
2019-03-01T22:42:41.895Z,8.00
2019-03-01T22:45:15.610Z,8.00
2019-03-01T22:47:47.630Z,8.00
2019-03-01T22:50:19.734Z,8.00
2019-03-01T22:52:51.928Z,8.00
2019-03-01T22:55:24.239Z,8.00
2019-03-01T22:57:57.814Z,7.90
2019-03-01T23:01:23.369Z,7.90
2019-03-01T23:04:06.504Z,7.90
2019-03-01T23:06:38.521Z,7.90
2019-03-01T23:09:14.843Z,7.90
2019-03-01T23:11:47.970Z,7.90
2019-03-01T23:14:20.513Z,7.90
2019-03-01T23:16:54.485Z,7.80
2019-03-01T23:19:27.295Z,7.80
2019-03-01T23:21:59.316Z,7.80
2019-03-01T23:24:31.751Z,7.80
2019-03-01T23:27:05.256Z,7.80
2019-03-01T23:29:37.275Z,7.80
2019-03-01T23:32:11.877Z,7.80
2019-03-01T23:34:43.791Z,7.80
2019-03-01T23:37:15.911Z,7.80
2019-03-01T23:39:48.015Z,7.80
2019-03-01T23:42:20.799Z,7.80
2019-03-01T23:44:54.023Z,7.80
2019-03-01T23:47:26.034Z,7.80
2019-03-01T23:49:59.396Z,7.80
2019-03-01T23:52:31.753Z,7.80
2019-03-01T23:55:03.848Z,7.80
2019-03-01T23:57:37.908Z,7.80
